Time;durP1;ratioP1;P1;durP2;ratioP2;P2;SDS_P1;SDS_P2;PMS_P1;PMS_P2;Temp;Humidity;BMP_temperature;BMP_pressure;BME280_temperature;BME280_humidity;BME280_pressure;Samples;Min_cycle;Max_cycle;Signal;HPM_P1;HPM_P2
2023/06/04 00:02:25;;;;;;;1.77;1.13;;;;;;;12.10;44.98;100205.06;10554155;27;20059;-61
2023/06/04 00:07:27;;;;;;;1.60;1.10;;;;;;;12.08;45.04;100205.16;10552681;28;20039;-63
2023/06/04 00:12:29;;;;;;;2.15;1.27;;;;;;;11.98;45.24;100197.94;10535899;27;20105;-62
2023/06/04 00:17:30;;;;;;;1.27;1.10;;;;;;;11.79;45.53;100202.59;10551814;28;20422;-62
2023/06/04 00:22:32;;;;;;;2.38;1.33;;;;;;;11.76;46.07;100197.56;10531010;28;20461;-62
2023/06/04 00:27:34;;;;;;;2.10;1.27;;;;;;;11.50;46.63;100198.28;10552720;27;20043;-62
2023/06/04 00:32:36;;;;;;;1.98;1.02;;;;;;;11.25;47.12;100202.31;10553396;28;20044;-62
2023/06/04 00:37:38;;;;;;;1.23;1.00;;;;;;;11.40;47.14;100194.53;10534903;27;20054;-62
2023/06/04 00:42:40;;;;;;;2.03;1.17;;;;;;;10.94;47.85;100210.22;10554107;27;20059;-61
2023/06/04 00:47:42;;;;;;;1.80;1.20;;;;;;;10.63;48.41;100197.19;10536216;28;20044;-61
2023/06/04 00:52:44;;;;;;;1.45;1.15;;;;;;;10.68;48.43;100199.53;10518577;28;20047;-62
2023/06/04 00:57:46;;;;;;;2.28;1.10;;;;;;;10.80;48.78;100199.72;10535532;28;20082;-61
2023/06/04 01:02:53;;;;;;;2.33;1.33;;;;;;;10.59;49.03;100195.66;10518799;28;20071;-62
2023/06/04 01:07:57;;;;;;;1.45;1.08;;;;;;;10.44;49.30;100202.56;10550402;28;20046;-62
2023/06/04 01:12:59;;;;;;;1.73;1.00;;;;;;;10.22;49.52;100209.06;10551758;28;20051;-62
2023/06/04 01:18:03;;;;;;;1.70;1.20;;;;;;;10.26;49.94;100215.81;10553435;28;20051;-61
2023/06/04 01:23:33;;;;;;;1.17;1.00;;;;;;;10.40;51.07;100202.81;10553275;28;20044;-63
2023/06/04 01:28:37;;;;;;;1.52;1.08;;;;;;;10.51;50.00;100203.09;10552850;28;20051;-62
2023/06/04 01:33:39;;;;;;;2.67;1.25;;;;;;;10.58;49.79;100203.59;10517583;28;20059;-61
2023/06/04 01:38:41;;;;;;;1.52;1.13;;;;;;;10.41;49.88;100204.53;10552681;28;20035;-62
2023/06/04 01:43:43;;;;;;;1.55;1.10;;;;;;;10.38;50.20;100208.16;10517094;28;20491;-62
2023/06/04 01:48:48;;;;;;;3.28;1.40;;;;;;;10.44;50.24;100213.03;10552732;28;20050;-62
2023/06/04 01:53:51;;;;;;;1.48;1.00;;;;;;;10.44;50.50;100205.19;10567414;27;20084;-62
2023/06/04 01:58:52;;;;;;;1.15;1.00;;;;;;;9.85;51.13;100202.31;10549198;28;20209;-62
2023/06/04 02:03:54;;;;;;;1.90;1.38;;;;;;;9.65;51.87;100213.78;10535949;28;20055;-62
2023/06/04 02:08:56;;;;;;;1.73;1.20;;;;;;;9.99;51.51;100219.91;10534600;28;20672;-62
2023/06/04 02:13:58;;;;;;;1.92;1.30;;;;;;;10.11;51.31;100219.25;10556685;28;20055;-62
2023/06/04 02:19:00;;;;;;;1.70;1.00;;;;;;;9.95;51.30;100219.19;10538248;28;20058;-62
2023/06/04 02:24:02;;;;;;;2.67;1.58;;;;;;;9.88;51.60;100223.06;10532317;28;20052;-62
2023/06/04 02:29:04;;;;;;;2.30;1.20;;;;;;;9.81;51.65;100226.91;10536600;28;20138;-62
2023/06/04 02:34:06;;;;;;;2.20;1.27;;;;;;;9.46;52.41;100228.69;10524179;28;20057;-62
2023/06/04 02:39:08;;;;;;;1.80;1.20;;;;;;;9.57;52.53;100223.78;10554253;28;20043;-62
2023/06/04 02:44:10;;;;;;;1.35;1.10;;;;;;;9.68;52.43;100220.66;10525640;28;20058;-62
2023/06/04 02:49:13;;;;;;;1.27;1.00;;;;;;;9.33;52.34;100225.00;10535993;28;20050;-62
2023/06/04 02:54:15;;;;;;;1.52;1.10;;;;;;;8.86;53.39;100226.50;10538963;28;20043;-62
2023/06/04 02:59:17;;;;;;;1.20;1.10;;;;;;;8.71;53.48;100232.41;10555408;28;20512;-62
2023/06/04 03:04:20;;;;;;;1.48;1.10;;;;;;;8.56;53.69;100235.78;10570370;27;20393;-62
2023/06/04 03:09:22;;;;;;;1.08;0.82;;;;;;;8.61;54.01;100231.16;10557695;28;20082;-62
2023/06/04 03:14:31;;;;;;;2.53;1.35;;;;;;;8.69;54.46;100236.88;10535145;27;20058;-62
2023/06/04 03:19:36;;;;;;;1.50;1.00;;;;;;;8.91;54.07;100234.94;10521153;28;20055;-62
2023/06/04 03:24:40;;;;;;;2.28;1.23;;;;;;;8.98;53.76;100227.66;10554958;27;20067;-62
2023/06/04 03:29:42;;;;;;;1.45;1.00;;;;;;;8.69;54.13;100234.25;10554627;27;20036;-62
2023/06/04 03:34:46;;;;;;;2.17;1.30;;;;;;;8.82;53.97;100232.78;10536645;27;20047;-62
2023/06/04 03:39:48;;;;;;;2.10;1.30;;;;;;;9.02;53.95;100234.41;10552584;28;20073;-62
2023/06/04 03:44:51;;;;;;;2.47;1.30;;;;;;;9.12;53.70;100233.91;10534785;28;20134;-62
2023/06/04 03:49:54;;;;;;;1.08;1.00;;;;;;;9.21;53.58;100230.84;10535561;28;20047;-62
2023/06/04 03:54:56;;;;;;;1.60;1.08;;;;;;;9.30;53.63;100234.78;10554422;28;20101;-62
2023/06/04 03:59:58;;;;;;;2.13;1.40;;;;;;;9.61;53.48;100234.91;10551234;27;20049;-62
2023/06/04 04:05:01;;;;;;;2.63;1.08;;;;;;;9.71;53.20;100232.72;10550168;28;20415;-62
2023/06/04 04:10:04;;;;;;;2.95;1.50;;;;;;;9.75;53.50;100229.84;10551342;28;20047;-62
2023/06/04 04:15:07;;;;;;;2.25;1.20;;;;;;;11.97;50.73;100220.69;10529881;27;20526;-62
2023/06/04 04:20:10;;;;;;;3.30;1.30;;;;;;;14.18;46.52;100216.63;10533627;28;20043;-62
2023/06/04 04:25:18;;;;;;;1.95;1.30;;;;;;;15.70;44.01;100215.91;10533671;28;20040;-62
2023/06/04 04:30:20;;;;;;;3.22;1.30;;;;;;;16.90;41.97;100215.97;10528899;27;20051;-63
2023/06/04 04:35:25;;;;;;;2.42;1.20;;;;;;;17.95;40.15;100215.13;10525100;27;20665;-63
2023/06/04 04:40:31;;;;;;;2.00;1.23;;;;;;;19.57;38.28;100202.22;10515200;28;20109;-63
2023/06/04 04:45:34;;;;;;;2.13;1.20;;;;;;;21.33;35.86;100204.63;10537093;27;20066;-63
2023/06/04 04:50:37;;;;;;;1.90;1.20;;;;;;;21.88;34.64;100201.50;10519234;27;20841;-62
2023/06/04 04:55:40;;;;;;;1.75;1.20;;;;;;;22.07;33.95;100199.69;10519026;28;20052;-62
2023/06/04 05:00:42;;;;;;;1.85;1.10;;;;;;;22.65;33.19;100200.56;10534893;28;20142;-62
2023/06/04 05:05:45;;;;;;;3.15;1.30;;;;;;;23.22;31.94;100193.53;10531592;28;20043;-63
2023/06/04 05:10:48;;;;;;;1.40;1.05;;;;;;;23.72;31.26;100199.53;10515275;27;20059;-63
2023/06/04 05:15:52;;;;;;;2.13;1.13;;;;;;;24.02;30.54;100198.81;10549288;27;20054;-63
2023/06/04 05:20:59;;;;;;;1.55;1.02;;;;;;;24.32;30.05;100204.44;10512640;28;20343;-63
2023/06/04 05:26:06;;;;;;;1.08;0.90;;;;;;;23.97;30.02;100211.00;10525374;28;20039;-62
2023/06/04 05:31:09;;;;;;;1.98;1.00;;;;;;;21.50;32.41;100225.03;10535969;28;20050;-63
2023/06/04 05:36:12;;;;;;;1.67;1.00;;;;;;;19.74;34.53;100237.81;10522551;28;20044;-63
2023/06/04 05:41:23;;;;;;;1.65;1.00;;;;;;;18.32;36.08;100242.78;10532736;28;20506;-63
2023/06/04 05:46:25;;;;;;;1.60;1.20;;;;;;;17.37;37.07;100241.19;10529780;28;20440;-63
2023/06/04 05:51:28;;;;;;;1.90;1.13;;;;;;;16.84;37.61;100249.97;10520402;28;20039;-62
2023/06/04 05:56:31;;;;;;;2.40;1.20;;;;;;;16.80;37.44;100256.47;10527078;28;20051;-62
2023/06/04 06:01:34;;;;;;;1.80;1.05;;;;;;;16.50;37.40;100254.47;10525349;28;20093;-62
2023/06/04 06:06:37;;;;;;;1.90;1.20;;;;;;;16.60;37.28;100259.88;10525317;28;20407;-61
2023/06/04 06:11:39;;;;;;;1.50;1.00;;;;;;;16.49;37.11;100257.25;10525622;28;20055;-61
2023/06/04 06:16:41;;;;;;;4.05;1.20;;;;;;;16.65;37.01;100255.06;10548679;28;20072;-61
2023/06/04 06:21:43;;;;;;;2.30;1.20;;;;;;;16.63;36.35;100263.09;10518681;28;20135;-61
2023/06/04 06:26:46;;;;;;;2.70;1.23;;;;;;;16.69;36.60;100269.72;10512119;28;20407;-61
2023/06/04 06:31:49;;;;;;;3.22;1.25;;;;;;;16.53;36.48;100275.34;10529162;28;20127;-63
2023/06/04 06:36:51;;;;;;;2.92;1.42;;;;;;;16.72;36.13;100278.22;10547431;28;21111;-61
2023/06/04 06:41:53;;;;;;;3.50;1.20;;;;;;;16.55;36.15;100273.44;10555689;27;20051;-60
2023/06/04 06:46:59;;;;;;;2.05;1.10;;;;;;;16.96;35.77;100278.03;10536252;28;20043;-62
2023/06/04 06:52:02;;;;;;;2.15;1.20;;;;;;;17.18;35.19;100279.81;10554971;28;20059;-62
2023/06/04 06:57:08;;;;;;;1.40;1.00;;;;;;;17.53;35.27;100281.25;10553769;27;20050;-62
2023/06/04 07:02:10;;;;;;;2.45;1.10;;;;;;;18.13;34.21;100282.34;10537020;28;20535;-61
2023/06/04 07:07:12;;;;;;;2.00;1.02;;;;;;;18.80;33.98;100285.31;10553914;28;20134;-62
2023/06/04 07:12:18;;;;;;;1.50;1.05;;;;;;;20.47;32.82;100274.22;10538075;28;20058;-63
2023/06/04 07:17:20;;;;;;;4.00;1.10;;;;;;;21.94;31.62;100268.47;10553514;28;20514;-62
2023/06/04 07:22:22;;;;;;;2.33;1.23;;;;;;;22.82;29.86;100270.84;10554222;28;20455;-62
2023/06/04 07:27:24;;;;;;;2.10;1.20;;;;;;;24.10;29.45;100257.59;10553496;28;20055;-62
2023/06/04 07:32:26;;;;;;;1.27;1.00;;;;;;;24.23;27.72;100265.09;10554249;27;20047;-62
2023/06/04 07:37:28;;;;;;;1.55;1.00;;;;;;;24.75;26.63;100265.44;10552312;28;20515;-63
2023/06/04 07:42:30;;;;;;;1.85;1.08;;;;;;;24.99;26.85;100249.25;10554270;28;20059;-62
2023/06/04 07:47:32;;;;;;;1.58;1.00;;;;;;;25.72;26.32;100253.09;10534935;27;20035;-63
2023/06/04 07:52:34;;;;;;;1.45;0.90;;;;;;;26.54;25.60;100248.56;10553871;28;20044;-63
2023/06/04 07:57:37;;;;;;;1.17;0.82;;;;;;;26.69;25.10;100249.38;10553827;27;20426;-63
2023/06/04 08:02:39;;;;;;;2.03;1.20;;;;;;;25.90;24.84;100256.28;10556009;28;20523;-63
2023/06/04 08:07:41;;;;;;;1.85;1.10;;;;;;;26.72;24.23;100246.34;10555162;27;20055;-63
2023/06/04 08:12:43;;;;;;;1.67;1.17;;;;;;;26.96;23.71;100246.00;10555927;27;20490;-63
2023/06/04 08:17:45;;;;;;;1.77;1.15;;;;;;;26.19;23.38;100246.63;10556521;28;20406;-63
2023/06/04 08:22:47;;;;;;;1.42;1.02;;;;;;;25.64;23.81;100247.81;10555423;28;20980;-63
2023/06/04 08:27:48;;;;;;;1.70;1.00;;;;;;;26.43;23.52;100247.19;10555786;28;20123;-63
2023/06/04 08:32:50;;;;;;;1.63;0.90;;;;;;;26.49;22.59;100249.13;10523235;28;20558;-63
2023/06/04 08:37:52;;;;;;;1.73;1.10;;;;;;;26.30;23.30;100243.50;10556304;27;20052;-63
2023/06/04 08:42:59;;;;;;;1.17;0.82;;;;;;;25.58;21.97;100243.19;10554893;28;20733;-62
2023/06/04 08:48:01;;;;;;;1.35;0.82;;;;;;;25.55;23.13;100237.34;10553658;28;20043;-62
2023/06/04 08:53:03;;;;;;;0.63;0.60;;;;;;;26.65;22.87;100240.91;10553655;28;20055;-63
2023/06/04 08:58:08;;;;;;;2.05;1.13;;;;;;;26.68;22.26;100243.22;10552698;27;20638;-63
2023/06/04 09:03:11;;;;;;;2.28;1.00;;;;;;;26.24;20.97;100242.38;10552564;28;20055;-62
2023/06/04 09:08:16;;;;;;;1.42;0.90;;;;;;;26.41;22.28;100241.16;10553804;28;20351;-62
2023/06/04 09:13:22;;;;;;;0.95;0.82;;;;;;;26.52;21.03;100239.88;10553962;28;20044;-62
2023/06/04 09:18:26;;;;;;;1.60;1.10;;;;;;;26.95;21.40;100247.03;10553613;28;20051;-61
2023/06/04 09:23:28;;;;;;;1.23;0.85;;;;;;;26.24;21.92;100249.59;10552408;28;20052;-63
2023/06/04 09:28:31;;;;;;;1.58;0.90;;;;;;;26.38;21.79;100246.91;10553767;28;20043;-62
2023/06/04 09:33:45;;;;;;;1.13;1.00;;;;;;;26.11;19.57;100244.88;10553129;28;20048;-62
2023/06/04 09:38:47;;;;;;;1.17;0.90;;;;;;;25.43;21.19;100249.47;10552711;28;20036;-62
2023/06/04 09:44:05;;;;;;;1.25;0.90;;;;;;;25.96;20.82;100241.34;10517287;28;20054;-62
2023/06/04 09:49:07;;;;;;;1.13;0.85;;;;;;;25.88;21.36;100249.41;10553115;28;21163;-62
2023/06/04 09:54:10;;;;;;;1.52;0.88;;;;;;;25.97;21.03;100251.06;10552428;28;20043;-59
2023/06/04 09:59:13;;;;;;;1.10;0.90;;;;;;;25.25;20.44;100247.06;10534132;28;20050;-59
2023/06/04 10:04:15;;;;;;;1.55;1.00;;;;;;;25.37;20.90;100240.31;10552441;28;20136;-59
2023/06/04 10:09:20;;;;;;;0.73;0.73;;;;;;;25.94;19.92;100237.16;10551660;28;20408;-60
2023/06/04 10:14:25;;;;;;;0.63;0.63;;;;;;;25.24;19.77;100233.88;10556076;28;20555;-60
2023/06/04 10:19:28;;;;;;;1.27;0.90;;;;;;;25.35;20.21;100234.31;10561390;27;20047;-59
2023/06/04 10:24:30;;;;;;;1.02;0.80;;;;;;;24.79;19.79;100234.66;10560419;28;20081;-59
2023/06/04 10:29:32;;;;;;;1.75;0.90;;;;;;;24.89;20.32;100241.47;10560462;28;20063;-60
2023/06/04 10:34:35;;;;;;;1.75;0.77;;;;;;;24.41;20.59;100230.94;10560236;28;20044;-60
2023/06/04 10:39:37;;;;;;;1.25;0.80;;;;;;;24.28;21.41;100244.03;10560658;27;20048;-59
2023/06/04 10:44:51;;;;;;;1.02;0.90;;;;;;;24.28;21.41;100242.22;10560093;28;20067;-59
2023/06/04 10:50:10;;;;;;;0.82;0.73;;;;;;;23.72;20.75;100242.28;10559925;28;20039;-61
2023/06/04 10:55:12;;;;;;;1.00;0.90;;;;;;;23.88;21.61;100239.56;10559663;27;20422;-60
2023/06/04 11:00:16;;;;;;;1.35;0.88;;;;;;;24.19;21.71;100231.69;10558102;28;20059;-60
2023/06/04 11:05:18;;;;;;;1.17;0.93;;;;;;;23.91;21.94;100247.28;10558934;28;20054;-59
2023/06/04 11:10:35;;;;;;;0.80;0.80;;;;;;;23.79;21.65;100235.28;10559261;27;20048;-59
2023/06/04 11:15:45;;;;;;;1.42;0.82;;;;;;;23.69;21.12;100234.63;10551763;28;20035;-60
2023/06/04 11:20:49;;;;;;;1.38;1.00;;;;;;;23.66;22.89;100226.91;10556750;28;20047;-60
2023/06/04 11:25:55;;;;;;;1.52;0.90;;;;;;;23.80;22.72;100231.56;10555793;28;20075;-60
2023/06/04 11:30:57;;;;;;;0.88;0.75;;;;;;;24.06;23.04;100210.81;10557347;27;20475;-60
2023/06/04 11:36:00;;;;;;;1.40;0.98;;;;;;;23.91;23.01;100217.03;10557077;28;20664;-59
2023/06/04 11:41:04;;;;;;;1.27;0.88;;;;;;;23.73;22.94;100221.75;10557265;28;20044;-60
2023/06/04 11:46:08;;;;;;;1.65;1.08;;;;;;;24.00;22.72;100211.50;10557166;27;20043;-60
2023/06/04 11:51:13;;;;;;;1.67;1.17;;;;;;;24.15;22.71;100209.84;10536698;28;20128;-60
2023/06/04 11:56:16;;;;;;;2.30;1.33;;;;;;;24.14;22.96;100210.81;10554832;28;20047;-60
2023/06/04 12:01:18;;;;;;;1.42;1.10;;;;;;;24.06;21.61;100202.78;10557266;27;20193;-59
2023/06/04 12:06:20;;;;;;;1.33;1.00;;;;;;;23.78;22.48;100195.38;10537202;28;20047;-60
2023/06/04 12:11:41;;;;;;;2.28;1.10;;;;;;;24.03;21.41;100187.13;10519242;28;20044;-60
2023/06/04 12:16:56;;;;;;;1.60;1.27;;;;;;;24.18;22.31;100201.44;10554009;28;20075;-60
2023/06/04 12:22:03;;;;;;;1.95;1.10;;;;;;;23.97;20.72;100187.81;10554474;28;20059;-60
2023/06/04 12:27:08;;;;;;;1.83;1.13;;;;;;;24.19;21.90;100188.94;10554099;28;20126;-60
2023/06/04 12:32:13;;;;;;;1.42;1.10;;;;;;;24.51;20.23;100188.78;10554735;28;20053;-60
2023/06/04 12:37:15;;;;;;;2.22;1.15;;;;;;;24.25;21.76;100180.22;10553838;27;20061;-60
2023/06/04 12:42:19;;;;;;;1.63;1.15;;;;;;;24.05;21.61;100186.94;10534404;28;20071;-59
2023/06/04 12:47:21;;;;;;;1.15;1.00;;;;;;;24.19;20.89;100186.25;10551345;28;20039;-60
2023/06/04 12:52:23;;;;;;;2.13;1.10;;;;;;;23.93;21.57;100194.50;10551521;28;20044;-60
2023/06/04 12:57:25;;;;;;;1.65;0.90;;;;;;;23.83;21.00;100201.03;10550929;28;20363;-60
2023/06/04 13:02:27;;;;;;;0.98;0.80;;;;;;;24.14;21.57;100186.78;10550907;28;20142;-59
2023/06/04 13:07:29;;;;;;;2.25;1.20;;;;;;;24.26;21.54;100181.91;10551985;28;20048;-59
2023/06/04 13:12:31;;;;;;;2.45;1.50;;;;;;;24.31;21.29;100171.50;10553604;28;20051;-59
2023/06/04 13:17:33;;;;;;;1.20;1.10;;;;;;;23.94;20.61;100171.31;10552920;28;20499;-59
2023/06/04 13:22:35;;;;;;;1.73;1.10;;;;;;;24.08;21.05;100170.63;10552408;28;20053;-59
2023/06/04 13:27:37;;;;;;;1.80;1.10;;;;;;;24.47;21.00;100176.78;10534957;28;20053;-59
2023/06/04 13:32:39;;;;;;;1.85;1.10;;;;;;;24.32;21.26;100167.00;10527020;27;20493;-59
2023/06/04 13:37:42;;;;;;;1.25;1.10;;;;;;;24.29;21.04;100166.34;10550285;28;20039;-60
2023/06/04 13:42:46;;;;;;;1.58;1.10;;;;;;;24.53;21.43;100167.25;10549692;28;20047;-60
2023/06/04 13:47:49;;;;;;;1.42;1.05;;;;;;;24.16;20.71;100162.56;10548732;28;20083;-59
2023/06/04 13:52:56;;;;;;;1.77;1.10;;;;;;;24.14;20.83;100156.56;10549246;28;20483;-59
2023/06/04 13:57:59;;;;;;;2.50;1.30;;;;;;;24.29;20.95;100150.31;10549541;28;20578;-59
2023/06/04 14:03:01;;;;;;;1.45;1.20;;;;;;;24.38;21.18;100151.09;10549083;28;20040;-59
2023/06/04 14:08:03;;;;;;;1.17;1.00;;;;;;;24.16;19.31;100163.38;10547366;28;20042;-59
2023/06/04 14:13:05;;;;;;;2.15;1.40;;;;;;;24.10;20.48;100134.69;10530028;28;20036;-59
2023/06/04 14:18:07;;;;;;;2.58;1.40;;;;;;;24.17;20.43;100138.34;10549289;28;20043;-59
2023/06/04 14:23:11;;;;;;;2.85;1.50;;;;;;;24.04;20.42;100138.00;10533667;28;20048;-60
2023/06/04 14:28:13;;;;;;;2.40;1.45;;;;;;;24.13;21.17;100139.69;10549719;28;20142;-59
2023/06/04 14:33:15;;;;;;;1.60;1.20;;;;;;;24.13;20.23;100142.38;10550639;28;20051;-59
2023/06/04 14:38:17;;;;;;;2.15;1.40;;;;;;;24.28;20.61;100135.28;10549570;28;20805;-58
2023/06/04 14:43:19;;;;;;;2.17;1.50;;;;;;;24.45;20.82;100129.84;10551176;28;20055;-59
2023/06/04 14:48:21;;;;;;;2.45;1.50;;;;;;;24.27;20.65;100122.06;10549739;28;20039;-59
2023/06/04 14:53:23;;;;;;;2.42;1.50;;;;;;;24.21;20.41;100123.63;10551448;28;20058;-59
2023/06/04 14:58:25;;;;;;;3.80;1.65;;;;;;;24.08;20.36;100128.66;10549594;28;20503;-59
2023/06/04 15:03:27;;;;;;;1.92;1.40;;;;;;;24.08;20.21;100112.63;10557616;28;20055;-59
2023/06/04 15:08:29;;;;;;;3.45;1.60;;;;;;;23.97;20.26;100121.03;10557061;28;20051;-59
2023/06/04 15:13:30;;;;;;;4.07;1.73;;;;;;;24.22;19.68;100117.28;10531088;28;20047;-59
2023/06/04 15:18:32;;;;;;;2.47;1.55;;;;;;;24.12;20.07;100103.28;10535805;27;20053;-60
2023/06/04 15:23:34;;;;;;;2.75;1.60;;;;;;;24.21;20.29;100107.59;10556480;28;20051;-59
2023/06/04 15:28:36;;;;;;;2.92;1.60;;;;;;;24.16;20.27;100103.78;10557088;28;20190;-59
2023/06/04 15:33:38;;;;;;;2.92;1.75;;;;;;;24.33;20.42;100099.19;10555011;27;20070;-59
2023/06/04 15:38:40;;;;;;;3.90;1.50;;;;;;;24.36;19.93;100106.84;10551013;27;20040;-59
2023/06/04 15:43:42;;;;;;;2.17;1.52;;;;;;;24.16;19.88;100101.09;10542934;27;20074;-58
2023/06/04 15:48:45;;;;;;;2.72;1.77;;;;;;;24.08;20.25;100101.94;10554827;27;20047;-59
2023/06/04 15:53:47;;;;;;;3.83;2.00;;;;;;;24.09;20.40;100098.28;10552955;27;20055;-59
2023/06/04 15:58:50;;;;;;;2.15;1.50;;;;;;;24.08;20.69;100087.78;10554106;28;20065;-59
2023/06/04 16:03:53;;;;;;;3.35;1.73;;;;;;;24.45;20.85;100089.75;10553683;28;20150;-59
2023/06/04 16:08:57;;;;;;;3.70;1.70;;;;;;;24.24;20.41;100091.22;10536685;28;20484;-59
2023/06/04 16:13:59;;;;;;;2.03;1.38;;;;;;;24.23;20.90;100086.84;10552595;27;20043;-59
2023/06/04 16:19:01;;;;;;;4.00;1.77;;;;;;;24.13;20.85;100080.91;10551529;27;20547;-59
2023/06/04 16:24:03;;;;;;;3.35;1.65;;;;;;;24.22;20.92;100079.84;10545540;27;20043;-59
2023/06/04 16:29:05;;;;;;;3.78;1.80;;;;;;;24.08;21.17;100080.56;10550215;27;20362;-59
2023/06/04 16:34:08;;;;;;;3.08;1.55;;;;;;;23.81;21.19;100082.84;10549932;27;20050;-58
2023/06/04 16:39:11;;;;;;;2.42;1.50;;;;;;;23.80;21.09;100082.00;10544148;28;20054;-58
2023/06/04 16:44:13;;;;;;;4.95;1.58;;;;;;;23.79;21.10;100074.16;10549078;27;20051;-59
2023/06/04 16:49:15;;;;;;;2.55;1.65;;;;;;;23.52;21.44;100083.44;10528082;28;20036;-58
2023/06/04 16:54:17;;;;;;;3.42;1.98;;;;;;;23.45;21.25;100080.59;10548313;28;20032;-59
2023/06/04 16:59:21;;;;;;;4.28;1.70;;;;;;;23.44;21.18;100080.78;10547724;28;20411;-59
2023/06/04 17:04:23;;;;;;;2.47;1.65;;;;;;;23.56;21.20;100084.75;10546464;27;20062;-58
2023/06/04 17:09:25;;;;;;;2.35;1.48;;;;;;;23.56;21.09;100089.25;10531218;28;20708;-59
2023/06/04 17:14:27;;;;;;;5.10;1.60;;;;;;;23.47;21.39;100091.13;10552231;28;20519;-59
2023/06/04 17:19:33;;;;;;;2.80;1.60;;;;;;;23.33;21.41;100086.47;10549241;28;20047;-59
2023/06/04 17:24:35;;;;;;;3.97;1.80;;;;;;;23.10;21.43;100083.66;10550620;28;20073;-59
2023/06/04 17:29:37;;;;;;;2.63;1.50;;;;;;;23.03;21.64;100095.13;10552317;28;20051;-60
2023/06/04 17:34:39;;;;;;;3.22;1.60;;;;;;;23.02;21.47;100090.81;10549253;28;20035;-59
2023/06/04 17:39:41;;;;;;;2.63;1.63;;;;;;;22.90;21.52;100092.16;10516249;28;20047;-59
2023/06/04 17:44:43;;;;;;;2.53;1.40;;;;;;;22.59;21.33;100089.25;10530198;28;20317;-59
2023/06/04 17:49:45;;;;;;;1.92;1.40;;;;;;;22.60;22.02;100094.41;10549916;28;20055;-59
2023/06/04 17:54:48;;;;;;;3.78;1.40;;;;;;;22.70;22.14;100086.25;10532909;27;20046;-59
2023/06/04 17:59:50;;;;;;;1.73;1.30;;;;;;;22.59;22.41;100087.44;10528858;28;20043;-59
2023/06/04 18:04:52;;;;;;;2.70;1.40;;;;;;;22.69;22.77;100085.44;10549743;28;20055;-58
2023/06/04 18:09:54;;;;;;;2.53;1.45;;;;;;;22.57;22.96;100092.09;10546553;28;20495;-59
2023/06/04 18:14:56;;;;;;;1.35;1.20;;;;;;;22.38;23.02;100089.72;10548518;28;20040;-59
2023/06/04 18:19:58;;;;;;;2.38;1.30;;;;;;;22.12;23.42;100096.97;10520862;28;20062;-59
2023/06/04 18:25:00;;;;;;;2.50;1.50;;;;;;;22.17;23.78;100099.97;10550030;28;20043;-59
2023/06/04 18:30:02;;;;;;;2.30;1.30;;;;;;;21.98;23.95;100104.69;10546584;28;20044;-59
2023/06/04 18:35:05;;;;;;;2.65;1.40;;;;;;;21.93;23.94;100115.81;10545577;28;20048;-59
2023/06/04 18:40:07;;;;;;;2.22;1.33;;;;;;;21.63;24.08;100113.69;10545722;27;20047;-59
2023/06/04 18:45:14;;;;;;;3.75;1.20;;;;;;;21.52;24.50;100111.28;10551503;28;20146;-59
2023/06/04 18:50:16;;;;;;;3.00;1.50;;;;;;;21.40;24.81;100112.53;10512858;28;20044;-59
2023/06/04 18:55:18;;;;;;;2.50;1.42;;;;;;;21.19;24.91;100115.53;10545565;27;20035;-59
2023/06/04 19:00:20;;;;;;;1.92;1.20;;;;;;;20.98;25.17;100120.34;10551614;27;20054;-59
2023/06/04 19:05:22;;;;;;;2.03;1.15;;;;;;;20.78;25.24;100111.69;10553070;27;20048;-59
2023/06/04 19:10:24;;;;;;;2.17;1.30;;;;;;;20.71;25.80;100113.28;10545151;27;20044;-59
2023/06/04 19:15:26;;;;;;;2.25;1.17;;;;;;;20.53;26.02;100112.41;10543292;27;20043;-59
2023/06/04 19:20:28;;;;;;;1.80;1.20;;;;;;;20.32;26.58;100122.47;10547732;28;20054;-59
2023/06/04 19:25:30;;;;;;;1.15;1.05;;;;;;;20.13;26.93;100123.41;10551401;28;20555;-59
2023/06/04 19:30:32;;;;;;;1.60;1.13;;;;;;;19.92;27.42;100137.91;10549846;28;20383;-58
2023/06/04 19:35:33;;;;;;;4.15;1.20;;;;;;;19.76;27.50;100142.97;10550829;28;20047;-60
2023/06/04 19:40:35;;;;;;;2.95;1.27;;;;;;;19.59;28.31;100143.69;10529801;27;20051;-60
2023/06/04 19:45:37;;;;;;;3.50;1.40;;;;;;;19.44;28.68;100151.25;10551689;28;20109;-61
2023/06/04 19:50:39;;;;;;;2.83;1.70;;;;;;;19.26;29.03;100153.81;10550702;28;20136;-61
2023/06/04 19:55:41;;;;;;;1.63;1.20;;;;;;;19.13;29.45;100163.06;10521294;27;20048;-60
2023/06/04 20:00:44;;;;;;;1.98;1.10;;;;;;;18.94;29.76;100161.19;10512243;28;20438;-61
2023/06/04 20:05:46;;;;;;;2.55;1.10;;;;;;;18.55;30.43;100175.38;10509483;28;20060;-60
2023/06/04 20:10:48;;;;;;;3.53;1.30;;;;;;;18.43;30.73;100187.91;10495165;28;20564;-60
2023/06/04 20:15:50;;;;;;;2.10;1.33;;;;;;;18.34;30.87;100178.09;10508263;28;20051;-60
2023/06/04 20:20:52;;;;;;;2.88;1.50;;;;;;;18.09;31.41;100175.91;10511401;28;20048;-60
2023/06/04 20:25:56;;;;;;;1.77;1.20;;;;;;;17.96;31.99;100187.66;10510753;28;20446;-60
2023/06/04 20:30:58;;;;;;;2.45;1.40;;;;;;;17.89;32.15;100197.97;10510945;28;20059;-60
2023/06/04 20:36:00;;;;;;;1.73;1.20;;;;;;;17.67;33.09;100201.59;10496051;28;20040;-60
2023/06/04 20:41:02;;;;;;;2.97;1.50;;;;;;;17.49;33.39;100211.06;10513306;28;20052;-60
2023/06/04 20:46:03;;;;;;;4.35;1.17;;;;;;;17.35;33.36;100218.47;10512156;28;20055;-61
2023/06/04 20:51:06;;;;;;;2.35;1.30;;;;;;;17.25;33.55;100222.81;10511269;28;20185;-60
2023/06/04 20:56:07;;;;;;;3.35;1.40;;;;;;;17.01;34.21;100225.69;10511608;28;20040;-60
2023/06/04 21:01:11;;;;;;;2.35;1.30;;;;;;;16.66;35.06;100225.03;10511199;28;20052;-60
2023/06/04 21:06:13;;;;;;;2.63;1.58;;;;;;;16.35;35.32;100234.53;10508732;28;20567;-60
2023/06/04 21:11:15;;;;;;;1.85;1.20;;;;;;;16.29;35.59;100237.66;10506713;28;20521;-60
2023/06/04 21:16:17;;;;;;;2.45;1.10;;;;;;;15.92;36.08;100239.66;10507625;28;20059;-60
2023/06/04 21:21:19;;;;;;;2.20;1.40;;;;;;;15.86;36.26;100240.13;10508473;28;20048;-61
2023/06/04 21:26:21;;;;;;;2.30;1.23;;;;;;;15.71;36.93;100241.31;10506709;28;20298;-60
2023/06/04 21:31:23;;;;;;;2.08;1.25;;;;;;;15.55;37.36;100248.69;10507871;28;20048;-60
2023/06/04 21:36:25;;;;;;;1.95;1.20;;;;;;;15.42;37.64;100243.47;10507729;28;20043;-60
2023/06/04 21:41:27;;;;;;;2.60;1.35;;;;;;;15.26;38.04;100247.38;10506677;28;20051;-60
2023/06/04 21:46:29;;;;;;;2.00;1.23;;;;;;;15.04;38.59;100258.63;10505873;28;20051;-60
2023/06/04 21:51:30;;;;;;;2.55;1.48;;;;;;;14.89;39.05;100253.63;10505521;28;20052;-59
2023/06/04 21:56:32;;;;;;;1.63;1.20;;;;;;;14.79;39.44;100260.53;10496634;28;20519;-60
2023/06/04 22:01:34;;;;;;;2.22;1.42;;;;;;;14.11;40.57;100255.66;10509764;28;20071;-60
2023/06/04 22:06:36;;;;;;;2.08;1.38;;;;;;;13.95;40.95;100260.28;10510293;28;20147;-59
2023/06/04 22:11:38;;;;;;;1.65;1.25;;;;;;;13.97;41.15;100261.03;10537898;28;20043;-60
2023/06/04 22:16:40;;;;;;;2.25;1.40;;;;;;;13.85;41.41;100264.50;10524521;28;20058;-59
2023/06/04 22:21:42;;;;;;;2.45;1.27;;;;;;;13.59;41.99;100266.25;10523450;28;20082;-60
2023/06/04 22:26:43;;;;;;;2.00;1.38;;;;;;;13.74;42.16;100272.25;10522361;28;20591;-60
2023/06/04 22:31:46;;;;;;;2.50;1.30;;;;;;;13.67;42.08;100263.97;10522758;28;20334;-60
2023/06/04 22:36:48;;;;;;;3.78;1.50;;;;;;;13.46;42.59;100261.91;10523139;28;20076;-59
2023/06/04 22:41:50;;;;;;;2.80;1.35;;;;;;;13.48;42.68;100260.88;10504883;28;20044;-59
2023/06/04 22:46:52;;;;;;;2.65;1.35;;;;;;;13.50;42.81;100258.97;10523276;28;20044;-60
2023/06/04 22:51:54;;;;;;;2.05;1.33;;;;;;;13.22;43.30;100263.50;10537998;28;20048;-59
2023/06/04 22:56:56;;;;;;;2.05;1.20;;;;;;;13.27;43.55;100267.50;10504548;28;20163;-59
2023/06/04 23:01:58;;;;;;;1.88;1.20;;;;;;;13.18;43.50;100269.88;10522860;28;20508;-60
2023/06/04 23:07:00;;;;;;;1.65;1.27;;;;;;;12.82;44.37;100265.22;10506841;28;20040;-60
2023/06/04 23:12:02;;;;;;;1.45;1.20;;;;;;;12.19;45.07;100274.44;10520765;28;20067;-60